sensor_id;sensor_type;location;lat;lon;timestamp;P1;durP1;ratioP1;P2;durP2;ratioP2
73524;SDS011;61776;56.194;44.160;2022-07-29T00:00:07;16.97;;;6.30;;
73524;SDS011;61776;56.194;44.160;2022-07-29T00:02:34;15.27;;;5.82;;
73524;SDS011;61776;56.194;44.160;2022-07-29T00:05:01;13.77;;;6.20;;
73524;SDS011;61776;56.194;44.160;2022-07-29T00:07:28;20.55;;;7.95;;
73524;SDS011;61776;56.194;44.160;2022-07-29T00:09:54;15.67;;;6.33;;
73524;SDS011;61776;56.194;44.160;2022-07-29T00:12:20;18.35;;;7.10;;
73524;SDS011;61776;56.194;44.160;2022-07-29T00:14:48;14.57;;;6.78;;
73524;SDS011;61776;56.194;44.160;2022-07-29T00:17:15;13.73;;;6.28;;
73524;SDS011;61776;56.194;44.160;2022-07-29T00:19:40;15.93;;;6.10;;
73524;SDS011;61776;56.194;44.160;2022-07-29T00:22:06;14.32;;;6.78;;
73524;SDS011;61776;56.194;44.160;2022-07-29T00:24:32;12.63;;;5.90;;
73524;SDS011;61776;56.194;44.160;2022-07-29T00:26:58;15.73;;;6.17;;
73524;SDS011;61776;56.194;44.160;2022-07-29T00:29:24;9.73;;;5.43;;
73524;SDS011;61776;56.194;44.160;2022-07-29T00:31:50;10.35;;;5.70;;
73524;SDS011;61776;56.194;44.160;2022-07-29T00:34:16;12.75;;;5.32;;
73524;SDS011;61776;56.194;44.160;2022-07-29T00:37:00;10.43;;;4.60;;
73524;SDS011;61776;56.194;44.160;2022-07-29T00:39:26;12.40;;;5.20;;
73524;SDS011;61776;56.194;44.160;2022-07-29T00:41:52;15.32;;;4.30;;
73524;SDS011;61776;56.194;44.160;2022-07-29T00:44:18;12.60;;;4.70;;
73524;SDS011;61776;56.194;44.160;2022-07-29T00:46:43;9.05;;;4.43;;
73524;SDS011;61776;56.194;44.160;2022-07-29T00:49:09;9.02;;;4.28;;
73524;SDS011;61776;56.194;44.160;2022-07-29T00:51:36;11.03;;;3.90;;
73524;SDS011;61776;56.194;44.160;2022-07-29T00:54:03;8.13;;;3.92;;
73524;SDS011;61776;56.194;44.160;2022-07-29T00:56:30;8.00;;;3.97;;
73524;SDS011;61776;56.194;44.160;2022-07-29T00:58:57;9.80;;;3.95;;
73524;SDS011;61776;56.194;44.160;2022-07-29T01:01:23;8.88;;;3.97;;
73524;SDS011;61776;56.194;44.160;2022-07-29T01:03:49;8.27;;;3.50;;
73524;SDS011;61776;56.194;44.160;2022-07-29T01:06:15;8.65;;;4.28;;
73524;SDS011;61776;56.194;44.160;2022-07-29T01:08:44;7.05;;;3.30;;
73524;SDS011;61776;56.194;44.160;2022-07-29T01:11:12;7.63;;;3.58;;
73524;SDS011;61776;56.194;44.160;2022-07-29T01:13:42;8.00;;;3.58;;
73524;SDS011;61776;56.194;44.160;2022-07-29T01:16:20;7.53;;;3.10;;
73524;SDS011;61776;56.194;44.160;2022-07-29T01:18:49;7.63;;;3.50;;
73524;SDS011;61776;56.194;44.160;2022-07-29T01:21:38;6.53;;;3.05;;
73524;SDS011;61776;56.194;44.160;2022-07-29T01:30:04;8.07;;;3.30;;
73524;SDS011;61776;56.194;44.160;2022-07-29T01:32:31;8.00;;;3.10;;
73524;SDS011;61776;56.194;44.160;2022-07-29T01:35:10;7.90;;;3.08;;
73524;SDS011;61776;56.194;44.160;2022-07-29T01:37:47;10.75;;;3.70;;
73524;SDS011;61776;56.194;44.160;2022-07-29T01:43:27;15.27;;;6.50;;
73524;SDS011;61776;56.194;44.160;2022-07-29T01:46:00;11.48;;;4.50;;
73524;SDS011;61776;56.194;44.160;2022-07-29T01:48:36;11.13;;;4.82;;
73524;SDS011;61776;56.194;44.160;2022-07-29T01:51:12;21.23;;;7.88;;
73524;SDS011;61776;56.194;44.160;2022-07-29T01:53:42;14.18;;;7.20;;
73524;SDS011;61776;56.194;44.160;2022-07-29T01:56:13;22.77;;;11.23;;
73524;SDS011;61776;56.194;44.160;2022-07-29T01:58:42;19.20;;;9.05;;
73524;SDS011;61776;56.194;44.160;2022-07-29T02:01:10;22.58;;;10.43;;
73524;SDS011;61776;56.194;44.160;2022-07-29T02:03:37;17.30;;;7.18;;
73524;SDS011;61776;56.194;44.160;2022-07-29T02:06:06;17.75;;;8.20;;
73524;SDS011;61776;56.194;44.160;2022-07-29T02:08:35;16.97;;;8.63;;
73524;SDS011;61776;56.194;44.160;2022-07-29T02:11:03;17.10;;;8.20;;
73524;SDS011;61776;56.194;44.160;2022-07-29T02:13:31;13.75;;;7.25;;
73524;SDS011;61776;56.194;44.160;2022-07-29T02:15:59;15.38;;;6.55;;
73524;SDS011;61776;56.194;44.160;2022-07-29T02:18:26;21.15;;;7.90;;
73524;SDS011;61776;56.194;44.160;2022-07-29T02:20:55;19.73;;;6.77;;
73524;SDS011;61776;56.194;44.160;2022-07-29T02:23:23;14.13;;;5.82;;
73524;SDS011;61776;56.194;44.160;2022-07-29T02:25:52;10.98;;;5.43;;
73524;SDS011;61776;56.194;44.160;2022-07-29T02:28:20;11.18;;;5.40;;
73524;SDS011;61776;56.194;44.160;2022-07-29T02:30:49;11.05;;;6.03;;
73524;SDS011;61776;56.194;44.160;2022-07-29T02:33:18;12.57;;;5.43;;
73524;SDS011;61776;56.194;44.160;2022-07-29T02:35:47;11.38;;;5.05;;
73524;SDS011;61776;56.194;44.160;2022-07-29T02:38:17;15.38;;;5.28;;
73524;SDS011;61776;56.194;44.160;2022-07-29T02:41:03;10.95;;;4.60;;
73524;SDS011;61776;56.194;44.160;2022-07-29T02:43:33;8.95;;;4.20;;
73524;SDS011;61776;56.194;44.160;2022-07-29T02:46:01;8.37;;;3.83;;
73524;SDS011;61776;56.194;44.160;2022-07-29T02:48:36;7.82;;;3.63;;
73524;SDS011;61776;56.194;44.160;2022-07-29T02:51:13;7.78;;;3.22;;
73524;SDS011;61776;56.194;44.160;2022-07-29T02:53:46;8.00;;;3.35;;
73524;SDS011;61776;56.194;44.160;2022-07-29T02:56:16;7.90;;;3.22;;
73524;SDS011;61776;56.194;44.160;2022-07-29T02:58:49;7.13;;;3.40;;
73524;SDS011;61776;56.194;44.160;2022-07-29T03:01:22;7.20;;;2.97;;
73524;SDS011;61776;56.194;44.160;2022-07-29T03:03:50;7.05;;;3.25;;
73524;SDS011;61776;56.194;44.160;2022-07-29T03:06:19;9.40;;;3.53;;
73524;SDS011;61776;56.194;44.160;2022-07-29T03:08:47;8.43;;;3.25;;
73524;SDS011;61776;56.194;44.160;2022-07-29T03:11:14;7.00;;;3.37;;
73524;SDS011;61776;56.194;44.160;2022-07-29T03:13:42;9.98;;;3.33;;
73524;SDS011;61776;56.194;44.160;2022-07-29T03:16:09;7.40;;;3.17;;
73524;SDS011;61776;56.194;44.160;2022-07-29T03:18:35;6.78;;;2.92;;
73524;SDS011;61776;56.194;44.160;2022-07-29T03:21:02;6.65;;;3.40;;
73524;SDS011;61776;56.194;44.160;2022-07-29T03:23:29;5.50;;;2.70;;
73524;SDS011;61776;56.194;44.160;2022-07-29T03:25:55;8.07;;;3.10;;
73524;SDS011;61776;56.194;44.160;2022-07-29T03:28:22;9.88;;;3.13;;
73524;SDS011;61776;56.194;44.160;2022-07-29T03:30:49;6.10;;;3.35;;
73524;SDS011;61776;56.194;44.160;2022-07-29T03:33:15;7.30;;;2.88;;
73524;SDS011;61776;56.194;44.160;2022-07-29T03:35:41;6.27;;;3.30;;
73524;SDS011;61776;56.194;44.160;2022-07-29T03:38:07;6.57;;;3.00;;
73524;SDS011;61776;56.194;44.160;2022-07-29T03:40:34;6.30;;;3.13;;
73524;SDS011;61776;56.194;44.160;2022-07-29T03:43:06;6.63;;;3.28;;
73524;SDS011;61776;56.194;44.160;2022-07-29T03:45:35;6.10;;;2.93;;
73524;SDS011;61776;56.194;44.160;2022-07-29T03:48:05;6.85;;;2.85;;
73524;SDS011;61776;56.194;44.160;2022-07-29T03:50:33;7.40;;;3.15;;
73524;SDS011;61776;56.194;44.160;2022-07-29T03:53:00;5.88;;;3.40;;
73524;SDS011;61776;56.194;44.160;2022-07-29T03:55:28;11.20;;;3.38;;
73524;SDS011;61776;56.194;44.160;2022-07-29T03:57:57;13.63;;;3.80;;
73524;SDS011;61776;56.194;44.160;2022-07-29T04:00:25;7.03;;;3.17;;
73524;SDS011;61776;56.194;44.160;2022-07-29T04:02:52;5.55;;;3.10;;
73524;SDS011;61776;56.194;44.160;2022-07-29T04:05:18;7.93;;;3.67;;
73524;SDS011;61776;56.194;44.160;2022-07-29T04:07:45;6.40;;;3.33;;
73524;SDS011;61776;56.194;44.160;2022-07-29T04:10:11;7.70;;;3.50;;
73524;SDS011;61776;56.194;44.160;2022-07-29T04:12:37;7.85;;;3.47;;
73524;SDS011;61776;56.194;44.160;2022-07-29T04:15:04;5.65;;;3.25;;
73524;SDS011;61776;56.194;44.160;2022-07-29T04:17:30;5.05;;;3.30;;
73524;SDS011;61776;56.194;44.160;2022-07-29T04:19:56;5.43;;;3.20;;
73524;SDS011;61776;56.194;44.160;2022-07-29T04:22:23;4.45;;;2.80;;
73524;SDS011;61776;56.194;44.160;2022-07-29T04:24:49;10.07;;;3.67;;
73524;SDS011;61776;56.194;44.160;2022-07-29T04:27:15;6.80;;;3.63;;
73524;SDS011;61776;56.194;44.160;2022-07-29T04:29:40;5.17;;;3.50;;
73524;SDS011;61776;56.194;44.160;2022-07-29T04:32:06;8.75;;;3.50;;
73524;SDS011;61776;56.194;44.160;2022-07-29T04:34:32;6.25;;;3.40;;
73524;SDS011;61776;56.194;44.160;2022-07-29T04:36:58;7.50;;;3.33;;
73524;SDS011;61776;56.194;44.160;2022-07-29T04:39:24;6.10;;;3.40;;
73524;SDS011;61776;56.194;44.160;2022-07-29T04:41:50;6.07;;;3.70;;
73524;SDS011;61776;56.194;44.160;2022-07-29T04:44:17;7.22;;;3.45;;
73524;SDS011;61776;56.194;44.160;2022-07-29T04:46:42;8.83;;;3.80;;
73524;SDS011;61776;56.194;44.160;2022-07-29T04:49:08;6.65;;;3.90;;
73524;SDS011;61776;56.194;44.160;2022-07-29T04:51:34;6.45;;;3.67;;
73524;SDS011;61776;56.194;44.160;2022-07-29T04:54:00;5.33;;;3.50;;
73524;SDS011;61776;56.194;44.160;2022-07-29T04:56:26;7.10;;;3.72;;
73524;SDS011;61776;56.194;44.160;2022-07-29T04:58:52;5.57;;;3.80;;
73524;SDS011;61776;56.194;44.160;2022-07-29T05:01:19;8.00;;;3.70;;
73524;SDS011;61776;56.194;44.160;2022-07-29T05:03:45;8.00;;;3.50;;
73524;SDS011;61776;56.194;44.160;2022-07-29T05:06:11;8.23;;;3.67;;
73524;SDS011;61776;56.194;44.160;2022-07-29T05:08:38;7.35;;;3.47;;
73524;SDS011;61776;56.194;44.160;2022-07-29T05:11:04;9.77;;;4.05;;
73524;SDS011;61776;56.194;44.160;2022-07-29T05:13:29;8.80;;;4.53;;
73524;SDS011;61776;56.194;44.160;2022-07-29T05:15:55;9.80;;;4.45;;
73524;SDS011;61776;56.194;44.160;2022-07-29T05:18:24;11.27;;;5.18;;
73524;SDS011;61776;56.194;44.160;2022-07-29T05:20:50;8.20;;;5.00;;
73524;SDS011;61776;56.194;44.160;2022-07-29T05:23:16;9.55;;;4.72;;
73524;SDS011;61776;56.194;44.160;2022-07-29T05:25:42;6.40;;;4.60;;
73524;SDS011;61776;56.194;44.160;2022-07-29T05:28:08;7.20;;;4.60;;
73524;SDS011;61776;56.194;44.160;2022-07-29T05:30:34;12.43;;;5.20;;
73524;SDS011;61776;56.194;44.160;2022-07-29T05:33:00;13.10;;;5.07;;
73524;SDS011;61776;56.194;44.160;2022-07-29T05:35:26;8.13;;;4.63;;
73524;SDS011;61776;56.194;44.160;2022-07-29T05:37:52;8.20;;;4.93;;
73524;SDS011;61776;56.194;44.160;2022-07-29T05:40:18;8.00;;;4.53;;
73524;SDS011;61776;56.194;44.160;2022-07-29T05:42:44;7.57;;;4.07;;
73524;SDS011;61776;56.194;44.160;2022-07-29T05:45:10;7.47;;;4.40;;
73524;SDS011;61776;56.194;44.160;2022-07-29T05:47:36;7.15;;;4.20;;
73524;SDS011;61776;56.194;44.160;2022-07-29T05:50:02;5.88;;;4.07;;
73524;SDS011;61776;56.194;44.160;2022-07-29T05:52:29;9.53;;;4.43;;
73524;SDS011;61776;56.194;44.160;2022-07-29T05:54:55;9.68;;;4.75;;
73524;SDS011;61776;56.194;44.160;2022-07-29T05:57:22;11.60;;;4.55;;
73524;SDS011;61776;56.194;44.160;2022-07-29T05:59:50;8.30;;;5.13;;
73524;SDS011;61776;56.194;44.160;2022-07-29T06:02:16;14.20;;;5.63;;
73524;SDS011;61776;56.194;44.160;2022-07-29T06:04:43;17.97;;;6.03;;
73524;SDS011;61776;56.194;44.160;2022-07-29T06:07:09;12.55;;;5.47;;
73524;SDS011;61776;56.194;44.160;2022-07-29T06:09:36;12.98;;;5.95;;
73524;SDS011;61776;56.194;44.160;2022-07-29T06:12:02;15.55;;;6.57;;
73524;SDS011;61776;56.194;44.160;2022-07-29T06:14:28;13.90;;;6.80;;
73524;SDS011;61776;56.194;44.160;2022-07-29T06:16:54;10.57;;;6.10;;
73524;SDS011;61776;56.194;44.160;2022-07-29T06:19:20;11.43;;;5.95;;
73524;SDS011;61776;56.194;44.160;2022-07-29T06:21:47;11.25;;;6.28;;
73524;SDS011;61776;56.194;44.160;2022-07-29T06:24:13;11.52;;;6.40;;
73524;SDS011;61776;56.194;44.160;2022-07-29T06:26:40;12.30;;;6.43;;
73524;SDS011;61776;56.194;44.160;2022-07-29T06:29:07;13.13;;;6.50;;
73524;SDS011;61776;56.194;44.160;2022-07-29T06:31:33;11.23;;;6.38;;
73524;SDS011;61776;56.194;44.160;2022-07-29T06:33:59;12.85;;;6.63;;
73524;SDS011;61776;56.194;44.160;2022-07-29T06:36:25;11.17;;;6.63;;
73524;SDS011;61776;56.194;44.160;2022-07-29T06:38:51;10.63;;;5.63;;
73524;SDS011;61776;56.194;44.160;2022-07-29T06:41:17;16.77;;;6.13;;
73524;SDS011;61776;56.194;44.160;2022-07-29T06:43:43;11.03;;;6.10;;
73524;SDS011;61776;56.194;44.160;2022-07-29T11:15:11;22.10;;;13.43;;
73524;SDS011;61776;56.194;44.160;2022-07-29T11:21:02;26.37;;;13.70;;
73524;SDS011;61776;56.194;44.160;2022-07-29T11:23:21;18.73;;;13.15;;
73524;SDS011;61776;56.194;44.160;2022-07-29T11:31:20;24.75;;;15.13;;
73524;SDS011;61776;56.194;44.160;2022-07-29T11:47:32;4.37;;;2.47;;
73524;SDS011;61776;56.194;44.160;2022-07-29T11:50:14;3.90;;;1.80;;
73524;SDS011;61776;56.194;44.160;2022-07-29T11:52:43;4.93;;;1.92;;
73524;SDS011;61776;56.194;44.160;2022-07-29T11:55:17;6.80;;;2.05;;
73524;SDS011;61776;56.194;44.160;2022-07-29T11:57:45;5.18;;;2.45;;
73524;SDS011;61776;56.194;44.160;2022-07-29T12:00:21;5.90;;;2.83;;
73524;SDS011;61776;56.194;44.160;2022-07-29T12:02:50;5.93;;;2.65;;
73524;SDS011;61776;56.194;44.160;2022-07-29T12:05:16;8.82;;;3.70;;
73524;SDS011;61776;56.194;44.160;2022-07-29T12:07:43;10.05;;;4.40;;
73524;SDS011;61776;56.194;44.160;2022-07-29T12:10:09;10.65;;;5.15;;
73524;SDS011;61776;56.194;44.160;2022-07-29T12:12:36;11.07;;;6.90;;
73524;SDS011;61776;56.194;44.160;2022-07-29T12:15:12;9.68;;;4.20;;
73524;SDS011;61776;56.194;44.160;2022-07-29T12:17:46;8.23;;;4.38;;
73524;SDS011;61776;56.194;44.160;2022-07-29T12:20:13;10.88;;;5.93;;
73524;SDS011;61776;56.194;44.160;2022-07-29T12:22:47;9.75;;;4.95;;
73524;SDS011;61776;56.194;44.160;2022-07-29T12:25:14;10.47;;;5.10;;
73524;SDS011;61776;56.194;44.160;2022-07-29T12:27:41;10.05;;;5.95;;
73524;SDS011;61776;56.194;44.160;2022-07-29T12:30:11;11.40;;;5.80;;
73524;SDS011;61776;56.194;44.160;2022-07-29T12:32:40;9.93;;;5.85;;
73524;SDS011;61776;56.194;44.160;2022-07-29T12:35:09;10.10;;;6.25;;
73524;SDS011;61776;56.194;44.160;2022-07-29T12:37:40;13.70;;;8.37;;
73524;SDS011;61776;56.194;44.160;2022-07-29T12:40:08;13.10;;;8.73;;
73524;SDS011;61776;56.194;44.160;2022-07-29T12:42:36;13.77;;;8.90;;
73524;SDS011;61776;56.194;44.160;2022-07-29T12:45:03;14.80;;;8.75;;
73524;SDS011;61776;56.194;44.160;2022-07-29T12:47:30;14.48;;;9.65;;
73524;SDS011;61776;56.194;44.160;2022-07-29T12:50:12;15.13;;;8.60;;
73524;SDS011;61776;56.194;44.160;2022-07-29T12:52:43;13.60;;;7.45;;
73524;SDS011;61776;56.194;44.160;2022-07-29T12:55:10;8.43;;;5.03;;
73524;SDS011;61776;56.194;44.160;2022-07-29T12:57:47;8.68;;;4.78;;
73524;SDS011;61776;56.194;44.160;2022-07-29T13:00:15;10.13;;;5.68;;
73524;SDS011;61776;56.194;44.160;2022-07-29T13:02:42;12.83;;;5.93;;
73524;SDS011;61776;56.194;44.160;2022-07-29T13:05:09;7.68;;;4.70;;
73524;SDS011;61776;56.194;44.160;2022-07-29T13:07:36;10.20;;;5.03;;
73524;SDS011;61776;56.194;44.160;2022-07-29T13:10:13;7.28;;;3.20;;
73524;SDS011;61776;56.194;44.160;2022-07-29T13:13:08;7.43;;;4.47;;
73524;SDS011;61776;56.194;44.160;2022-07-29T13:15:36;5.80;;;3.23;;
73524;SDS011;61776;56.194;44.160;2022-07-29T13:18:04;7.28;;;3.00;;
73524;SDS011;61776;56.194;44.160;2022-07-29T13:20:31;5.22;;;2.70;;
73524;SDS011;61776;56.194;44.160;2022-07-29T13:22:58;5.03;;;2.45;;
73524;SDS011;61776;56.194;44.160;2022-07-29T13:25:29;4.85;;;2.75;;
73524;SDS011;61776;56.194;44.160;2022-07-29T13:27:57;4.10;;;2.60;;
73524;SDS011;61776;56.194;44.160;2022-07-29T13:30:24;6.20;;;3.00;;
73524;SDS011;61776;56.194;44.160;2022-07-29T13:32:51;5.32;;;2.47;;
73524;SDS011;61776;56.194;44.160;2022-07-29T13:35:18;6.25;;;2.97;;
73524;SDS011;61776;56.194;44.160;2022-07-29T13:37:44;7.10;;;3.10;;
73524;SDS011;61776;56.194;44.160;2022-07-29T13:40:10;5.93;;;2.87;;
73524;SDS011;61776;56.194;44.160;2022-07-29T13:42:38;7.50;;;3.22;;
73524;SDS011;61776;56.194;44.160;2022-07-29T13:45:04;6.97;;;3.50;;
73524;SDS011;61776;56.194;44.160;2022-07-29T13:47:31;6.15;;;3.20;;
73524;SDS011;61776;56.194;44.160;2022-07-29T13:50:00;6.82;;;3.15;;
73524;SDS011;61776;56.194;44.160;2022-07-29T13:52:28;5.47;;;3.07;;
73524;SDS011;61776;56.194;44.160;2022-07-29T13:54:55;5.05;;;3.08;;
73524;SDS011;61776;56.194;44.160;2022-07-29T13:57:21;6.45;;;3.33;;
73524;SDS011;61776;56.194;44.160;2022-07-29T13:59:47;7.22;;;3.10;;
73524;SDS011;61776;56.194;44.160;2022-07-29T14:02:13;4.57;;;2.63;;
73524;SDS011;61776;56.194;44.160;2022-07-29T14:04:39;4.87;;;2.50;;
73524;SDS011;61776;56.194;44.160;2022-07-29T14:07:05;5.47;;;2.35;;
73524;SDS011;61776;56.194;44.160;2022-07-29T14:09:31;6.60;;;3.10;;
73524;SDS011;61776;56.194;44.160;2022-07-29T14:13:01;5.80;;;3.03;;
73524;SDS011;61776;56.194;44.160;2022-07-29T14:21:26;5.30;;;3.20;;
73524;SDS011;61776;56.194;44.160;2022-07-29T14:24:31;5.63;;;3.60;;
73524;SDS011;61776;56.194;44.160;2022-07-29T14:28:02;8.15;;;4.00;;
73524;SDS011;61776;56.194;44.160;2022-07-29T14:31:33;7.20;;;4.20;;
73524;SDS011;61776;56.194;44.160;2022-07-29T14:35:02;7.00;;;4.30;;
73524;SDS011;61776;56.194;44.160;2022-07-29T14:38:31;8.95;;;5.97;;
73524;SDS011;61776;56.194;44.160;2022-07-29T14:42:00;12.95;;;8.23;;
73524;SDS011;61776;56.194;44.160;2022-07-29T14:45:29;13.15;;;8.38;;
73524;SDS011;61776;56.194;44.160;2022-07-29T14:54:57;13.23;;;8.90;;
73524;SDS011;61776;56.194;44.160;2022-07-29T14:58:02;18.63;;;11.90;;
73524;SDS011;61776;56.194;44.160;2022-07-29T15:01:32;20.02;;;13.20;;
73524;SDS011;61776;56.194;44.160;2022-07-29T15:05:04;16.03;;;10.53;;
73524;SDS011;61776;56.194;44.160;2022-07-29T15:08:33;15.38;;;9.90;;
73524;SDS011;61776;56.194;44.160;2022-07-29T15:12:02;15.85;;;10.40;;
73524;SDS011;61776;56.194;44.160;2022-07-29T15:15:31;17.85;;;11.00;;
73524;SDS011;61776;56.194;44.160;2022-07-29T17:50:21;23.70;;;13.80;;
73524;SDS011;61776;56.194;44.160;2022-07-29T17:52:47;24.23;;;13.02;;
73524;SDS011;61776;56.194;44.160;2022-07-29T17:55:12;20.53;;;12.23;;
73524;SDS011;61776;56.194;44.160;2022-07-29T17:57:38;19.52;;;10.63;;
73524;SDS011;61776;56.194;44.160;2022-07-29T18:00:04;15.40;;;8.45;;
73524;SDS011;61776;56.194;44.160;2022-07-29T18:02:31;19.90;;;11.00;;
73524;SDS011;61776;56.194;44.160;2022-07-29T18:06:21;25.97;;;13.57;;
73524;SDS011;61776;56.194;44.160;2022-07-29T18:09:26;31.55;;;15.32;;
73524;SDS011;61776;56.194;44.160;2022-07-29T18:12:32;35.65;;;17.45;;
73524;SDS011;61776;56.194;44.160;2022-07-29T18:15:38;33.13;;;16.80;;
73524;SDS011;61776;56.194;44.160;2022-07-29T18:18:44;30.80;;;15.07;;
73524;SDS011;61776;56.194;44.160;2022-07-29T18:21:49;21.03;;;12.40;;
73524;SDS011;61776;56.194;44.160;2022-07-29T18:24:55;20.17;;;10.07;;
73524;SDS011;61776;56.194;44.160;2022-07-29T18:28:01;17.83;;;9.70;;
73524;SDS011;61776;56.194;44.160;2022-07-29T18:31:06;14.10;;;8.45;;
73524;SDS011;61776;56.194;44.160;2022-07-29T18:34:12;17.83;;;8.18;;
73524;SDS011;61776;56.194;44.160;2022-07-29T18:37:43;13.33;;;7.20;;
73524;SDS011;61776;56.194;44.160;2022-07-29T18:41:12;12.75;;;7.72;;
73524;SDS011;61776;56.194;44.160;2022-07-29T18:44:41;17.80;;;10.23;;
73524;SDS011;61776;56.194;44.160;2022-07-29T18:48:14;31.35;;;16.00;;
73524;SDS011;61776;56.194;44.160;2022-07-29T22:16:46;26.13;;;14.37;;
73524;SDS011;61776;56.194;44.160;2022-07-29T22:19:12;24.73;;;13.77;;
73524;SDS011;61776;56.194;44.160;2022-07-29T22:21:39;25.42;;;13.88;;
73524;SDS011;61776;56.194;44.160;2022-07-29T22:24:05;26.98;;;13.80;;
73524;SDS011;61776;56.194;44.160;2022-07-29T22:27:54;30.75;;;15.27;;
73524;SDS011;61776;56.194;44.160;2022-07-29T22:31:23;29.60;;;15.50;;
73524;SDS011;61776;56.194;44.160;2022-07-29T22:34:54;33.13;;;17.33;;
73524;SDS011;61776;56.194;44.160;2022-07-29T22:38:25;37.53;;;19.15;;
73524;SDS011;61776;56.194;44.160;2022-07-29T22:41:55;38.97;;;18.75;;
73524;SDS011;61776;56.194;44.160;2022-07-29T22:45:24;46.72;;;21.55;;
73524;SDS011;61776;56.194;44.160;2022-07-29T22:48:53;45.67;;;21.03;;
73524;SDS011;61776;56.194;44.160;2022-07-29T22:52:24;38.47;;;19.95;;
73524;SDS011;61776;56.194;44.160;2022-07-29T22:55:54;35.50;;;19.25;;
73524;SDS011;61776;56.194;44.160;2022-07-29T22:59:01;36.42;;;20.33;;
73524;SDS011;61776;56.194;44.160;2022-07-29T23:02:49;42.13;;;21.73;;
73524;SDS011;61776;56.194;44.160;2022-07-29T23:12:17;38.30;;;18.70;;
